createdAt,value
2023-03-14T00:02:16.009Z,95231.00
2023-03-14T00:04:43.138Z,95244.00
2023-03-14T00:07:12.656Z,95247.00
2023-03-14T00:09:40.166Z,95227.00
2023-03-14T00:12:08.533Z,95249.00
2023-03-14T00:14:35.652Z,95257.00
2023-03-14T00:17:02.657Z,95253.00
2023-03-14T00:19:29.444Z,95235.00
2023-03-14T00:21:56.243Z,95249.00
2023-03-14T00:24:23.299Z,95230.00
2023-03-14T00:26:50.038Z,95244.00
2023-03-14T00:29:16.804Z,95259.00
2023-03-14T00:31:46.131Z,95255.00
2023-03-14T00:34:12.953Z,95261.00
2023-03-14T00:36:39.972Z,95272.00
2023-03-14T00:39:06.785Z,95285.00
2023-03-14T00:41:33.604Z,95276.00
2023-03-14T00:44:00.891Z,95272.00
2023-03-14T00:46:27.981Z,95268.00
2023-03-14T00:48:54.792Z,95255.00
2023-03-14T00:51:21.580Z,95249.00
2023-03-14T00:53:48.896Z,95233.00
2023-03-14T00:56:16.287Z,95240.00
2023-03-14T00:58:43.473Z,95228.00
2023-03-14T01:01:16.464Z,95236.00
2023-03-14T01:03:43.679Z,95232.00
2023-03-14T01:06:17.370Z,95206.00
2023-03-14T01:08:45.487Z,95224.00
2023-03-14T01:11:22.739Z,95233.00
2023-03-14T01:13:50.858Z,95224.00
2023-03-14T01:16:19.532Z,95230.00
2023-03-14T01:18:47.688Z,95231.00
2023-03-14T01:21:24.331Z,95236.00
2023-03-14T01:23:53.640Z,95225.00
2023-03-14T01:26:24.352Z,95238.00
2023-03-14T01:28:54.193Z,95230.00
2023-03-14T01:31:22.303Z,95221.00
2023-03-14T01:33:49.157Z,95229.00
2023-03-14T01:36:16.699Z,95211.00
2023-03-14T01:38:45.023Z,95207.00
2023-03-14T01:41:24.892Z,95189.00
2023-03-14T01:43:53.543Z,95180.00
2023-03-14T01:46:41.062Z,95201.00
2023-03-14T01:49:30.256Z,95208.00
2023-03-14T01:52:17.602Z,95191.00
2023-03-14T01:54:51.208Z,95192.00
2023-03-14T01:57:32.760Z,95192.00
2023-03-14T02:00:14.821Z,95176.00
2023-03-14T02:02:59.582Z,95180.00
2023-03-14T02:05:33.456Z,95186.00
2023-03-14T02:08:08.213Z,95169.00
2023-03-14T02:10:51.853Z,95164.00
2023-03-14T02:13:25.050Z,95177.00
2023-03-14T02:16:11.020Z,95163.00
2023-03-14T02:18:48.608Z,95165.00
2023-03-14T02:22:02.699Z,95180.00
2023-03-14T02:25:03.683Z,95180.00
2023-03-14T02:27:32.000Z,95176.00
2023-03-14T02:30:15.079Z,95175.00
2023-03-14T02:32:50.544Z,95184.00
2023-03-14T02:35:23.887Z,95186.00
2023-03-14T02:38:25.555Z,95179.00
2023-03-14T02:40:52.694Z,95174.00
2023-03-14T02:43:20.034Z,95188.00
2023-03-14T02:45:53.466Z,95191.00
2023-03-14T02:48:29.041Z,95172.00
2023-03-14T02:50:59.889Z,95195.00
2023-03-14T02:53:35.189Z,95179.00
2023-03-14T02:56:08.457Z,95175.00
2023-03-14T02:58:37.927Z,95165.00
2023-03-14T03:01:20.831Z,95175.00
2023-03-14T03:03:47.704Z,95159.00
2023-03-14T03:06:14.500Z,95143.00
2023-03-14T03:08:41.349Z,95141.00
2023-03-14T03:11:08.223Z,95138.00
2023-03-14T03:13:36.149Z,95129.00
2023-03-14T03:16:05.899Z,95141.00
2023-03-14T03:18:35.003Z,95142.00
2023-03-14T03:21:05.006Z,95148.00
2023-03-14T03:23:32.026Z,95145.00
2023-03-14T03:25:59.037Z,95150.00
2023-03-14T03:28:25.961Z,95154.00
2023-03-14T03:30:54.062Z,95152.00
2023-03-14T03:33:22.555Z,95142.00
2023-03-14T03:35:51.997Z,95145.00
2023-03-14T03:38:32.005Z,95146.00
2023-03-14T03:41:06.809Z,95141.00
2023-03-14T03:43:33.959Z,95145.00
2023-03-14T03:46:06.876Z,95143.00
2023-03-14T03:48:35.346Z,95142.00
2023-03-14T03:51:04.771Z,95142.00
2023-03-14T03:53:33.827Z,95132.00
2023-03-14T03:56:05.614Z,95127.00
2023-03-14T03:58:33.719Z,95131.00
2023-03-14T04:01:00.510Z,95113.00
2023-03-14T04:03:27.875Z,95122.00
2023-03-14T04:06:15.592Z,95106.00
2023-03-14T04:08:45.597Z,95097.00
2023-03-14T04:11:24.584Z,95095.00
2023-03-14T04:14:05.516Z,95106.00
2023-03-14T04:16:32.531Z,95105.00
2023-03-14T04:19:05.395Z,95090.00
2023-03-14T04:21:33.139Z,95090.00
2023-03-14T04:23:59.943Z,95099.00
2023-03-14T04:26:30.493Z,95090.00
2023-03-14T04:28:57.727Z,95078.00
2023-03-14T04:31:24.957Z,95087.00
2023-03-14T04:33:52.581Z,95088.00
2023-03-14T04:36:26.380Z,95087.00
2023-03-14T04:38:53.633Z,95056.00
2023-03-14T04:41:21.736Z,95064.00
2023-03-14T04:43:48.693Z,95056.00
2023-03-14T04:46:15.807Z,95071.00
2023-03-14T04:48:43.796Z,95056.00
2023-03-14T04:51:11.025Z,95066.00
2023-03-14T04:53:37.972Z,95065.00
2023-03-14T04:56:09.076Z,95062.00
2023-03-14T04:58:40.144Z,95056.00
2023-03-14T05:01:08.121Z,95051.00
2023-03-14T05:03:53.734Z,95051.00
2023-03-14T05:06:46.836Z,95053.00
2023-03-14T05:09:27.761Z,95041.00
2023-03-14T05:12:21.948Z,95039.00
2023-03-14T05:15:06.749Z,95036.00
2023-03-14T05:17:57.949Z,95038.00
2023-03-14T05:20:45.063Z,95019.00
2023-03-14T05:23:46.054Z,95042.00
2023-03-14T05:26:30.782Z,95035.00
2023-03-14T05:29:20.658Z,95037.00
2023-03-14T05:32:06.421Z,95058.00
2023-03-14T05:35:00.301Z,95039.00
2023-03-14T05:37:39.664Z,95031.00
2023-03-14T05:40:31.704Z,95030.00
2023-03-14T05:43:05.657Z,95037.00
2023-03-14T05:45:42.820Z,95045.00
2023-03-14T05:48:31.021Z,95035.00
2023-03-14T05:51:07.046Z,95035.00
2023-03-14T05:53:43.225Z,95023.00
2023-03-14T05:56:36.056Z,95030.00
2023-03-14T05:59:12.175Z,95029.00
2023-03-14T06:01:50.407Z,95035.00
2023-03-14T06:04:21.348Z,95020.00
2023-03-14T06:06:53.803Z,95032.00
2023-03-14T06:09:23.703Z,95021.00
2023-03-14T06:11:52.122Z,95024.00
2023-03-14T06:14:19.528Z,95018.00
2023-03-14T06:16:51.685Z,95030.00
2023-03-14T06:19:20.184Z,95021.00
2023-03-14T06:21:47.659Z,95026.00
2023-03-14T06:24:14.567Z,95020.00
2023-03-14T06:26:46.233Z,95019.00
2023-03-14T06:29:14.365Z,95009.00
2023-03-14T06:31:41.789Z,95020.00
2023-03-14T06:34:09.426Z,95031.00
2023-03-14T06:36:36.208Z,95015.00
2023-03-14T06:39:04.464Z,95022.00
2023-03-14T06:41:33.974Z,95025.00
2023-03-14T06:44:01.516Z,95022.00
2023-03-14T06:46:28.542Z,95012.00
2023-03-14T06:48:55.415Z,95016.00
2023-03-14T06:51:22.313Z,95024.00
2023-03-14T06:53:50.032Z,95018.00
2023-03-14T06:56:18.581Z,95028.00
2023-03-14T06:58:47.255Z,95028.00
2023-03-14T07:01:26.668Z,95020.00
2023-03-14T07:03:54.939Z,95021.00
2023-03-14T07:06:23.180Z,95028.00
2023-03-14T07:08:50.377Z,95013.00
2023-03-14T07:11:18.242Z,95015.00
2023-03-14T07:13:45.445Z,95013.00
2023-03-14T07:16:12.356Z,95015.00
2023-03-14T07:18:39.492Z,95025.00
2023-03-14T07:21:09.935Z,95010.00
2023-03-14T07:23:37.584Z,95025.00
2023-03-14T07:26:04.802Z,95018.00
2023-03-14T07:28:33.329Z,95023.00
2023-03-14T07:31:05.948Z,95030.00
2023-03-14T07:33:33.726Z,95028.00
2023-03-14T07:36:02.124Z,95031.00
2023-03-14T07:38:29.219Z,95018.00
2023-03-14T07:41:15.370Z,95036.00
2023-03-14T07:43:50.682Z,95040.00
2023-03-14T07:46:18.734Z,95037.00
2023-03-14T07:48:45.555Z,95039.00
2023-03-14T07:51:12.397Z,95048.00
2023-03-14T07:53:40.235Z,95033.00
2023-03-14T07:56:07.483Z,95040.00
2023-03-14T07:58:34.513Z,95038.00
2023-03-14T08:01:01.594Z,95040.00
2023-03-14T08:03:28.401Z,95047.00
2023-03-14T08:05:55.512Z,95035.00
2023-03-14T08:08:22.303Z,95049.00
2023-03-14T08:10:49.156Z,95035.00
2023-03-14T08:13:16.202Z,95049.00
2023-03-14T08:15:43.009Z,95048.00
2023-03-14T08:18:09.870Z,95042.00
2023-03-14T08:20:37.738Z,95057.00
2023-03-14T08:23:04.919Z,95059.00
2023-03-14T08:25:32.818Z,95055.00
2023-03-14T08:27:59.982Z,95052.00
2023-03-14T08:30:27.135Z,95051.00
2023-03-14T08:32:54.105Z,95066.00
2023-03-14T08:35:21.284Z,95063.00
2023-03-14T08:37:48.346Z,95057.00
2023-03-14T08:40:16.363Z,95057.00
2023-03-14T08:42:43.772Z,95062.00
2023-03-14T08:45:15.822Z,95070.00
2023-03-14T08:47:43.594Z,95069.00
2023-03-14T08:50:15.504Z,95068.00
2023-03-14T08:52:43.223Z,95070.00
2023-03-14T08:55:11.057Z,95078.00
2023-03-14T08:57:37.946Z,95084.00
2023-03-14T09:00:11.437Z,95043.00
2023-03-14T09:02:38.754Z,95070.00
2023-03-14T09:05:06.742Z,95065.00
2023-03-14T09:07:33.586Z,95070.00
2023-03-14T09:10:00.421Z,95062.00
2023-03-14T09:12:27.295Z,95048.00
2023-03-14T09:14:54.367Z,95066.00
2023-03-14T09:17:21.301Z,95066.00
2023-03-14T09:19:48.073Z,95059.00
2023-03-14T09:22:14.820Z,95072.00
2023-03-14T09:24:42.844Z,95056.00
2023-03-14T09:27:09.899Z,95071.00
2023-03-14T09:29:36.730Z,95078.00
2023-03-14T09:32:04.413Z,95066.00
2023-03-14T09:34:31.184Z,95063.00
2023-03-14T09:36:58.222Z,95063.00
2023-03-14T09:39:25.706Z,95081.00
2023-03-14T09:41:56.459Z,95069.00
2023-03-14T09:44:38.203Z,95088.00
2023-03-14T09:47:13.720Z,95085.00
2023-03-14T09:49:42.233Z,95089.00
2023-03-14T09:52:25.643Z,95093.00
2023-03-14T09:54:59.601Z,95097.00
2023-03-14T09:57:28.442Z,95094.00
2023-03-14T10:00:14.844Z,95087.00
2023-03-14T10:02:51.272Z,95089.00
2023-03-14T10:05:22.119Z,95103.00
2023-03-14T10:07:49.529Z,95109.00
2023-03-14T10:10:26.550Z,95105.00
2023-03-14T10:13:14.178Z,95118.00
2023-03-14T10:15:41.386Z,95111.00
2023-03-14T10:18:13.973Z,95140.00
2023-03-14T10:20:48.087Z,95135.00
2023-03-14T10:23:15.940Z,95138.00
2023-03-14T10:26:01.388Z,95148.00
2023-03-14T10:28:32.864Z,95135.00
2023-03-14T10:31:00.735Z,95147.00
2023-03-14T10:33:34.451Z,95150.00
2023-03-14T10:36:26.976Z,95171.00
2023-03-14T10:39:17.584Z,95206.00
2023-03-14T10:41:54.872Z,95216.00
2023-03-14T10:44:26.537Z,95236.00
2023-03-14T10:47:01.349Z,95248.00
2023-03-14T10:49:37.916Z,95263.00
2023-03-14T10:52:20.215Z,95267.00
2023-03-14T10:55:03.691Z,95275.00
2023-03-14T10:57:30.666Z,95278.00
2023-03-14T11:00:00.689Z,95288.00
2023-03-14T11:03:01.510Z,95311.00
2023-03-14T11:05:57.290Z,95325.00
2023-03-14T11:08:50.275Z,95338.00
2023-03-14T11:11:29.807Z,95339.00
2023-03-14T11:14:26.530Z,95336.00
2023-03-14T11:17:21.130Z,95355.00
2023-03-14T11:20:11.902Z,95344.00
2023-03-14T11:23:00.597Z,95355.00
2023-03-14T11:25:47.898Z,95373.00
2023-03-14T11:28:36.815Z,95379.00
2023-03-14T11:31:45.447Z,95387.00
2023-03-14T11:34:51.530Z,95400.00
2023-03-14T11:37:34.909Z,95397.00
2023-03-14T11:40:18.937Z,95394.00
2023-03-14T11:42:56.373Z,95406.00
2023-03-14T11:45:40.895Z,95417.00
2023-03-14T11:48:38.132Z,95421.00
2023-03-14T11:51:25.270Z,95423.00
2023-03-14T11:54:09.104Z,95429.00
2023-03-14T11:56:53.117Z,95460.00
2023-03-14T11:59:34.053Z,95452.00
2023-03-14T12:02:27.210Z,95468.00
2023-03-14T12:05:47.480Z,95475.00
2023-03-14T12:08:44.248Z,95501.00
2023-03-14T12:11:51.599Z,95500.00
2023-03-14T12:14:35.668Z,95530.00
2023-03-14T12:17:21.902Z,95533.00
2023-03-14T12:20:22.068Z,95544.00
2023-03-14T12:22:57.666Z,95557.00
2023-03-14T12:25:31.962Z,95571.00
2023-03-14T12:27:58.723Z,95587.00
2023-03-14T12:30:31.919Z,95580.00
2023-03-14T12:33:28.586Z,95596.00
2023-03-14T12:36:05.590Z,95598.00
2023-03-14T12:38:49.659Z,95592.00
2023-03-14T12:41:27.398Z,95616.00
2023-03-14T12:43:54.489Z,95609.00
2023-03-14T12:46:27.285Z,95645.00
2023-03-14T12:49:09.578Z,95631.00
2023-03-14T12:51:39.295Z,95649.00
2023-03-14T12:54:44.997Z,95664.00
2023-03-14T12:57:48.617Z,95674.00
2023-03-14T13:00:34.672Z,95691.00
2023-03-14T13:03:19.534Z,95715.00
2023-03-14T13:05:59.616Z,95726.00
2023-03-14T13:08:48.056Z,95729.00
2023-03-14T13:11:20.660Z,95730.00
2023-03-14T13:13:56.463Z,95740.00
2023-03-14T13:16:23.398Z,95742.00
2023-03-14T13:19:01.999Z,95768.00
2023-03-14T13:21:36.581Z,95771.00
2023-03-14T13:24:08.550Z,95776.00
2023-03-14T13:26:46.969Z,95805.00
2023-03-14T13:29:32.603Z,95806.00
2023-03-14T13:32:19.985Z,95797.00
2023-03-14T13:34:49.567Z,95814.00
2023-03-14T13:37:26.215Z,95806.00
2023-03-14T13:39:58.432Z,95810.00
2023-03-14T13:42:30.648Z,95829.00
2023-03-14T13:44:58.286Z,95836.00
2023-03-14T13:47:27.284Z,95822.00
2023-03-14T13:49:54.722Z,95847.00
2023-03-14T13:52:36.604Z,95848.00
2023-03-14T13:55:14.876Z,95853.00
2023-03-14T13:57:45.938Z,95853.00
2023-03-14T14:00:39.355Z,95874.00
2023-03-14T14:03:12.418Z,95870.00
2023-03-14T14:05:42.268Z,95884.00
2023-03-14T14:08:13.264Z,95896.00
2023-03-14T14:10:40.569Z,95903.00
2023-03-14T14:13:16.760Z,95901.00
2023-03-14T14:15:47.425Z,95892.00
2023-03-14T14:18:23.233Z,95917.00
2023-03-14T14:20:51.324Z,95921.00
2023-03-14T14:23:25.841Z,95933.00
2023-03-14T14:25:54.633Z,95949.00
2023-03-14T14:28:32.031Z,95952.00
2023-03-14T14:31:06.488Z,96002.00
2023-03-14T14:33:55.025Z,95991.00
2023-03-14T14:36:33.755Z,96002.00
2023-03-14T14:39:09.403Z,96004.00
2023-03-14T14:41:42.825Z,95999.00
2023-03-14T14:44:14.847Z,96019.00
2023-03-14T14:46:43.265Z,96018.00
2023-03-14T14:49:20.337Z,96038.00
2023-03-14T14:51:51.994Z,96040.00
2023-03-14T14:54:33.635Z,96042.00
2023-03-14T14:57:06.413Z,96053.00
2023-03-14T14:59:42.499Z,96050.00
2023-03-14T15:02:41.280Z,96061.00
2023-03-14T15:05:19.328Z,96043.00
2023-03-14T15:07:47.237Z,96082.00
2023-03-14T15:10:24.313Z,96068.00
2023-03-14T15:12:51.717Z,96078.00
2023-03-14T15:15:19.241Z,96093.00
2023-03-14T15:17:46.116Z,96094.00
2023-03-14T15:20:17.096Z,96084.00
2023-03-14T15:22:44.044Z,96097.00
2023-03-14T15:25:31.598Z,96097.00
2023-03-14T15:27:58.347Z,96105.00
2023-03-14T15:30:25.973Z,96106.00
2023-03-14T15:32:52.861Z,96128.00
2023-03-14T15:35:19.954Z,96134.00
2023-03-14T15:37:46.784Z,96137.00
2023-03-14T15:40:16.003Z,96155.00
2023-03-14T15:42:46.924Z,96158.00
2023-03-14T15:45:13.973Z,96138.00
2023-03-14T15:47:40.795Z,96156.00
2023-03-14T15:50:10.655Z,96156.00
2023-03-14T15:52:37.668Z,96158.00
2023-03-14T15:55:04.890Z,96171.00
2023-03-14T15:57:31.687Z,96174.00
2023-03-14T15:59:58.696Z,96179.00
2023-03-14T16:02:25.742Z,96187.00
2023-03-14T16:04:53.090Z,96190.00
2023-03-14T16:07:19.935Z,96193.00
2023-03-14T16:09:46.699Z,96209.00
2023-03-14T16:12:13.471Z,96235.00
2023-03-14T16:14:43.639Z,96205.00
2023-03-14T16:17:11.855Z,96231.00
2023-03-14T16:19:38.947Z,96240.00
2023-03-14T16:22:05.700Z,96230.00
2023-03-14T16:24:32.464Z,96242.00
2023-03-14T16:26:59.407Z,96244.00
2023-03-14T16:29:26.328Z,96249.00
2023-03-14T16:31:53.254Z,96247.00
2023-03-14T16:34:20.221Z,96270.00
2023-03-14T16:36:48.037Z,96267.00
2023-03-14T16:39:14.806Z,96263.00
2023-03-14T16:41:42.161Z,96270.00
2023-03-14T16:44:08.979Z,96301.00
2023-03-14T16:46:36.399Z,96295.00
2023-03-14T16:49:04.552Z,96295.00
2023-03-14T16:51:31.954Z,96299.00
2023-03-14T16:53:58.741Z,96300.00
2023-03-14T16:56:25.533Z,96305.00
2023-03-14T16:58:52.343Z,96312.00
2023-03-14T17:01:19.265Z,96308.00
2023-03-14T17:03:49.783Z,96342.00
2023-03-14T17:06:23.721Z,96340.00
2023-03-14T17:08:51.305Z,96344.00
2023-03-14T17:11:18.500Z,96350.00
2023-03-14T17:13:45.513Z,96362.00
2023-03-14T17:16:12.655Z,96368.00
2023-03-14T17:18:39.733Z,96383.00
2023-03-14T17:21:07.079Z,96380.00
2023-03-14T17:23:35.673Z,96393.00
2023-03-14T17:26:02.977Z,96392.00
2023-03-14T17:28:30.663Z,96401.00
2023-03-14T17:31:13.919Z,96413.00
2023-03-14T17:33:40.807Z,96413.00
2023-03-14T17:36:11.200Z,96434.00
2023-03-14T17:38:38.363Z,96429.00
2023-03-14T17:41:10.716Z,96438.00
2023-03-14T17:43:39.596Z,96451.00
2023-03-14T17:46:15.231Z,96444.00
2023-03-14T17:48:44.826Z,96458.00
2023-03-14T17:51:13.224Z,96470.00
2023-03-14T17:53:40.442Z,96471.00
2023-03-14T17:56:08.857Z,96477.00
2023-03-14T17:58:37.750Z,96471.00
2023-03-14T18:01:14.391Z,96500.00
2023-03-14T18:03:41.775Z,96504.00
2023-03-14T18:06:10.760Z,96509.00
2023-03-14T18:08:41.662Z,96502.00
2023-03-14T18:11:08.473Z,96523.00
2023-03-14T18:13:38.406Z,96532.00
2023-03-14T18:16:07.327Z,96529.00
2023-03-14T18:18:34.216Z,96533.00
2023-03-14T18:21:01.360Z,96532.00
2023-03-14T18:23:28.170Z,96547.00
2023-03-14T18:25:55.435Z,96554.00
2023-03-14T18:28:23.257Z,96555.00
2023-03-14T18:30:52.524Z,96572.00
2023-03-14T18:33:23.308Z,96560.00
2023-03-14T18:35:53.101Z,96569.00
2023-03-14T18:38:20.961Z,96571.00
2023-03-14T18:40:47.727Z,96580.00
2023-03-14T18:43:14.490Z,96590.00
2023-03-14T18:45:41.505Z,96582.00
2023-03-14T18:48:08.269Z,96589.00
2023-03-14T18:50:35.348Z,96592.00
2023-03-14T18:53:02.372Z,96608.00
2023-03-14T18:55:29.220Z,96619.00
2023-03-14T18:57:56.495Z,96616.00
2023-03-14T19:00:26.594Z,96619.00
2023-03-14T19:02:53.662Z,96621.00
2023-03-14T19:05:20.490Z,96647.00
2023-03-14T19:07:47.289Z,96628.00
2023-03-14T19:10:14.149Z,96640.00
2023-03-14T19:12:40.983Z,96632.00
2023-03-14T19:15:10.809Z,96654.00
2023-03-14T19:17:37.616Z,96651.00
2023-03-14T19:20:04.957Z,96666.00
2023-03-14T19:22:32.562Z,96663.00
2023-03-14T19:24:59.361Z,96667.00
2023-03-14T19:27:26.335Z,96668.00
2023-03-14T19:29:53.130Z,96670.00
2023-03-14T19:32:20.667Z,96679.00
2023-03-14T19:34:47.595Z,96680.00
2023-03-14T19:37:14.657Z,96686.00
2023-03-14T19:39:41.692Z,96685.00
2023-03-14T19:42:08.720Z,96679.00
2023-03-14T19:44:35.452Z,96704.00
2023-03-14T19:47:02.233Z,96693.00
2023-03-14T19:49:29.030Z,96699.00
2023-03-14T19:51:55.804Z,96706.00
2023-03-14T19:54:23.172Z,96717.00
2023-03-14T19:56:51.656Z,96706.00
2023-03-14T19:59:18.711Z,96708.00
2023-03-14T20:01:48.612Z,96717.00
2023-03-14T20:04:15.806Z,96713.00
2023-03-14T20:06:42.637Z,96707.00
2023-03-14T20:09:10.632Z,96711.00
2023-03-14T20:11:40.804Z,96722.00
2023-03-14T20:14:09.121Z,96742.00
2023-03-14T20:16:37.707Z,96766.00
2023-03-14T20:19:11.441Z,96767.00
2023-03-14T20:21:38.853Z,96761.00
2023-03-14T20:24:06.130Z,96770.00
2023-03-14T20:26:34.619Z,96769.00
2023-03-14T20:29:02.038Z,96783.00
2023-03-14T20:31:29.165Z,96781.00
2023-03-14T20:33:56.209Z,96796.00
2023-03-14T20:36:22.998Z,96789.00
2023-03-14T20:38:50.079Z,96790.00
2023-03-14T20:41:16.853Z,96790.00
2023-03-14T20:43:43.640Z,96808.00
2023-03-14T20:46:14.244Z,96800.00
2023-03-14T20:48:41.106Z,96814.00
2023-03-14T20:51:07.918Z,96820.00
2023-03-14T20:53:35.001Z,96820.00
2023-03-14T20:56:01.814Z,96809.00
2023-03-14T20:58:28.646Z,96811.00
2023-03-14T21:00:57.541Z,96824.00
2023-03-14T21:03:25.196Z,96831.00
2023-03-14T21:05:52.703Z,96842.00
2023-03-14T21:08:23.444Z,96822.00
2023-03-14T21:10:52.480Z,96851.00
2023-03-14T21:13:19.827Z,96844.00
2023-03-14T21:15:47.098Z,96847.00
2023-03-14T21:18:14.012Z,96844.00
2023-03-14T21:20:42.426Z,96847.00
2023-03-14T21:23:11.677Z,96835.00
2023-03-14T21:25:39.049Z,96843.00
2023-03-14T21:28:06.177Z,96827.00
2023-03-14T21:30:35.199Z,96858.00
2023-03-14T21:33:02.679Z,96843.00
2023-03-14T21:35:30.389Z,96850.00
2023-03-14T21:37:57.295Z,96869.00
2023-03-14T21:40:24.472Z,96860.00
2023-03-14T21:42:54.117Z,96864.00
2023-03-14T21:45:25.825Z,96872.00
2023-03-14T21:47:56.979Z,96874.00
2023-03-14T21:50:26.128Z,96881.00
2023-03-14T21:52:56.420Z,96887.00
2023-03-14T21:55:25.331Z,96889.00
2023-03-14T21:57:54.973Z,96901.00
2023-03-14T22:00:22.907Z,96897.00
2023-03-14T22:03:11.613Z,96894.00
2023-03-14T22:05:43.471Z,96895.00
2023-03-14T22:08:11.714Z,96903.00
2023-03-14T22:10:51.078Z,96904.00
2023-03-14T22:13:19.160Z,96898.00
2023-03-14T22:15:47.949Z,96895.00
2023-03-14T22:18:18.865Z,96906.00
2023-03-14T22:20:45.836Z,96897.00
2023-03-14T22:23:13.592Z,96916.00
2023-03-14T22:25:47.113Z,96928.00
2023-03-14T22:28:14.154Z,96923.00
2023-03-14T22:30:41.063Z,96918.00
2023-03-14T22:33:07.945Z,96905.00
2023-03-14T22:35:35.573Z,96922.00
2023-03-14T22:38:02.377Z,96933.00
2023-03-14T22:40:29.162Z,96927.00
2023-03-14T22:42:57.128Z,96931.00
2023-03-14T22:45:24.363Z,96921.00
2023-03-14T22:47:51.245Z,96936.00
2023-03-14T22:50:18.041Z,96924.00
2023-03-14T22:52:45.021Z,96934.00
2023-03-14T22:55:11.985Z,96932.00
2023-03-14T22:57:40.073Z,96925.00
2023-03-14T23:00:12.941Z,96930.00
2023-03-14T23:02:40.948Z,96952.00
2023-03-14T23:05:08.819Z,96936.00
2023-03-14T23:07:35.750Z,96954.00
2023-03-14T23:10:03.846Z,96944.00
2023-03-14T23:12:30.703Z,96940.00
2023-03-14T23:14:57.849Z,96953.00
2023-03-14T23:17:25.795Z,96952.00
2023-03-14T23:19:54.115Z,96963.00
2023-03-14T23:22:21.220Z,96952.00
2023-03-14T23:24:49.005Z,96954.00
2023-03-14T23:27:17.314Z,96960.00
2023-03-14T23:29:47.073Z,96964.00
2023-03-14T23:32:15.412Z,96958.00
2023-03-14T23:34:43.366Z,96964.00
2023-03-14T23:37:13.814Z,96975.00
2023-03-14T23:39:44.952Z,96962.00
2023-03-14T23:42:12.768Z,96972.00
2023-03-14T23:44:39.790Z,96976.00
2023-03-14T23:47:07.027Z,96986.00
2023-03-14T23:49:33.847Z,96979.00
2023-03-14T23:52:00.611Z,96967.00
2023-03-14T23:54:27.606Z,96975.00
2023-03-14T23:56:54.631Z,96962.00
2023-03-14T23:59:23.422Z,96981.00
